createdAt,value
2022-11-20T00:00:55.493Z,31.60
2022-11-20T00:03:24.645Z,30.40
2022-11-20T00:05:52.534Z,32.10
2022-11-20T00:08:20.424Z,29.43
2022-11-20T00:10:48.312Z,30.07
2022-11-20T00:13:17.563Z,27.27
2022-11-20T00:15:45.655Z,30.87
2022-11-20T00:18:13.557Z,29.03
2022-11-20T00:20:41.501Z,29.07
2022-11-20T00:23:09.376Z,30.60
2022-11-20T00:25:37.450Z,30.40
2022-11-20T00:28:05.674Z,29.40
2022-11-20T00:30:34.932Z,29.17
2022-11-20T00:33:02.833Z,29.80
2022-11-20T00:35:31.277Z,28.83
2022-11-20T00:37:59.162Z,29.83
2022-11-20T00:40:27.147Z,31.07
2022-11-20T00:42:55.084Z,30.77
2022-11-20T00:45:22.987Z,29.47
2022-11-20T00:47:52.259Z,31.40
2022-11-20T00:50:20.134Z,29.60
2022-11-20T00:52:48.060Z,31.13
2022-11-20T00:55:16.128Z,28.83
2022-11-20T00:57:44.027Z,30.07
2022-11-20T01:00:12.592Z,29.90
2022-11-20T01:02:40.514Z,31.90
2022-11-20T01:05:10.239Z,30.47
2022-11-20T01:07:38.170Z,28.77
2022-11-20T01:10:07.271Z,32.00
2022-11-20T01:12:35.167Z,28.43
2022-11-20T01:15:03.077Z,30.33
2022-11-20T01:17:30.988Z,28.20
2022-11-20T01:19:58.901Z,29.70
2022-11-20T01:22:28.328Z,29.80
2022-11-20T01:24:56.215Z,28.37
2022-11-20T01:27:24.092Z,30.80
2022-11-20T01:29:53.884Z,28.13
2022-11-20T01:32:24.821Z,31.40
2022-11-20T01:34:52.803Z,30.60
2022-11-20T01:37:20.685Z,29.17
2022-11-20T01:39:49.936Z,31.17
2022-11-20T01:42:46.692Z,30.77
2022-11-20T01:46:00.291Z,27.70
2022-11-20T01:48:32.480Z,30.20
2022-11-20T01:51:00.445Z,30.97
2022-11-20T01:53:31.589Z,29.43
2022-11-20T01:56:02.486Z,28.40
2022-11-20T01:58:36.109Z,28.10
2022-11-20T02:01:05.110Z,28.60
2022-11-20T02:03:33.191Z,26.90
2022-11-20T02:06:07.259Z,26.83
2022-11-20T02:08:35.376Z,27.57
2022-11-20T02:11:04.636Z,31.10
2022-11-20T02:13:47.774Z,25.97
2022-11-20T02:16:18.377Z,27.97
2022-11-20T02:18:46.874Z,25.50
2022-11-20T02:21:29.769Z,25.37
2022-11-20T02:24:07.041Z,27.20
2022-11-20T02:26:36.863Z,28.13
2022-11-20T02:29:05.753Z,26.70
2022-11-20T02:31:38.624Z,28.60
2022-11-20T02:34:06.523Z,26.40
2022-11-20T02:36:36.288Z,26.60
2022-11-20T02:39:06.148Z,28.77
2022-11-20T02:41:35.641Z,27.30
2022-11-20T02:44:04.840Z,29.10
2022-11-20T02:46:32.880Z,29.67
2022-11-20T02:49:00.772Z,28.53
2022-11-20T02:51:28.694Z,28.07
2022-11-20T02:53:56.579Z,29.13
2022-11-20T02:56:25.929Z,31.57
2022-11-20T02:58:53.912Z,27.50
2022-11-20T03:01:21.949Z,31.27
2022-11-20T03:03:50.331Z,27.00
2022-11-20T03:06:18.879Z,30.17
2022-11-20T03:08:46.767Z,28.43
2022-11-20T03:11:14.761Z,28.43
2022-11-20T03:13:44.010Z,26.30
2022-11-20T03:16:13.998Z,25.67
2022-11-20T03:18:42.667Z,29.37
2022-11-20T03:21:11.356Z,31.00
2022-11-20T03:23:39.558Z,31.23
2022-11-20T03:26:12.135Z,29.50
2022-11-20T03:28:40.183Z,28.47
2022-11-20T03:31:11.036Z,28.43
2022-11-20T03:33:38.946Z,31.30
2022-11-20T03:36:08.928Z,31.47
2022-11-20T03:38:37.104Z,29.30
2022-11-20T03:41:06.287Z,27.70
2022-11-20T03:43:34.523Z,27.87
2022-11-20T03:46:03.008Z,28.50
2022-11-20T03:48:32.367Z,27.73
2022-11-20T03:51:11.198Z,27.10
2022-11-20T03:53:39.140Z,27.20
2022-11-20T03:56:08.299Z,28.07
2022-11-20T03:58:37.080Z,27.97
2022-11-20T04:01:09.313Z,27.53
2022-11-20T04:03:39.580Z,28.90
2022-11-20T04:06:09.174Z,28.47
2022-11-20T04:08:37.205Z,30.30
2022-11-20T04:11:12.903Z,27.97
2022-11-20T04:13:40.845Z,28.27
2022-11-20T04:16:09.871Z,26.80
2022-11-20T04:18:39.488Z,29.10
2022-11-20T04:21:08.028Z,27.30
2022-11-20T04:23:35.980Z,27.70
2022-11-20T04:26:05.296Z,26.83
2022-11-20T04:28:33.268Z,31.97
2022-11-20T04:31:05.853Z,27.20
2022-11-20T04:33:34.525Z,26.63
2022-11-20T04:36:05.308Z,29.57
2022-11-20T04:38:33.304Z,27.03
2022-11-20T04:41:01.574Z,26.87
2022-11-20T04:43:29.605Z,26.57
2022-11-20T04:45:58.398Z,27.40
2022-11-20T04:48:27.204Z,26.70
2022-11-20T04:50:55.584Z,28.57
2022-11-20T04:53:25.312Z,29.07
2022-11-20T04:55:53.218Z,26.17
2022-11-20T04:58:21.132Z,28.53
2022-11-20T05:00:49.001Z,25.73
2022-11-20T05:03:16.873Z,27.60
2022-11-20T05:05:44.744Z,27.50
2022-11-20T05:08:12.700Z,25.07
2022-11-20T05:10:41.956Z,25.67
2022-11-20T05:13:09.861Z,24.40
2022-11-20T05:15:37.801Z,26.43
2022-11-20T05:18:05.975Z,26.73
2022-11-20T05:20:33.868Z,27.73
2022-11-20T05:23:01.773Z,30.60
2022-11-20T05:25:29.678Z,28.03
2022-11-20T05:27:58.944Z,27.80
2022-11-20T05:30:26.812Z,29.73
2022-11-20T05:32:54.714Z,29.50
2022-11-20T05:35:22.613Z,27.53
2022-11-20T05:37:50.508Z,26.60
2022-11-20T05:40:18.411Z,27.30
2022-11-20T05:42:46.316Z,28.73
2022-11-20T05:45:15.701Z,27.30
2022-11-20T05:47:43.579Z,28.57
2022-11-20T05:50:11.532Z,29.73
2022-11-20T05:52:39.408Z,30.73
2022-11-20T05:55:08.143Z,27.90
2022-11-20T05:57:36.116Z,27.97
2022-11-20T06:00:04.117Z,29.60
2022-11-20T06:02:36.724Z,28.83
2022-11-20T06:05:04.928Z,27.47
2022-11-20T06:07:32.899Z,30.50
2022-11-20T06:10:00.840Z,27.90
2022-11-20T06:12:28.752Z,30.83
2022-11-20T06:14:56.635Z,30.23
2022-11-20T06:17:24.531Z,31.53
2022-11-20T06:19:53.811Z,30.80
2022-11-20T06:22:21.758Z,28.90
2022-11-20T06:24:49.852Z,30.07
2022-11-20T06:27:17.992Z,28.23
2022-11-20T06:29:45.924Z,29.90
2022-11-20T06:32:13.880Z,30.20
2022-11-20T06:34:41.763Z,26.33
2022-11-20T06:37:11.076Z,31.00
2022-11-20T06:39:38.960Z,27.60
2022-11-20T06:42:06.976Z,29.37
2022-11-20T06:44:34.845Z,29.03
2022-11-20T06:47:03.102Z,28.20
2022-11-20T06:49:31.101Z,28.70
2022-11-20T06:51:59.185Z,28.67
2022-11-20T06:54:28.830Z,28.87
2022-11-20T06:56:56.726Z,26.77
2022-11-20T06:59:24.778Z,30.37
2022-11-20T07:01:52.748Z,30.13
2022-11-20T07:04:20.649Z,29.50
2022-11-20T07:06:48.589Z,30.00
2022-11-20T07:09:17.337Z,30.13
2022-11-20T07:11:46.651Z,31.10
2022-11-20T07:14:14.576Z,29.60
2022-11-20T07:16:42.448Z,29.30
2022-11-20T07:19:10.335Z,30.70
2022-11-20T07:21:38.234Z,30.00
2022-11-20T07:24:06.434Z,30.60
2022-11-20T07:26:34.351Z,29.10
2022-11-20T07:29:03.595Z,31.53
2022-11-20T07:31:31.542Z,30.87
2022-11-20T07:33:59.464Z,31.03
2022-11-20T07:36:27.347Z,32.40
2022-11-20T07:38:55.383Z,30.80
2022-11-20T07:41:23.262Z,29.33
2022-11-20T07:43:51.148Z,33.00
2022-11-20T07:46:20.398Z,31.13
2022-11-20T07:48:48.308Z,28.27
2022-11-20T07:51:16.253Z,30.10
2022-11-20T07:53:44.180Z,29.30
2022-11-20T07:56:12.212Z,27.90
2022-11-20T07:58:40.104Z,27.60
2022-11-20T08:01:09.070Z,30.23
2022-11-20T08:03:39.427Z,27.70
2022-11-20T08:06:08.085Z,26.80
2022-11-20T08:08:40.049Z,28.53
2022-11-20T08:11:27.864Z,26.50
2022-11-20T08:14:13.685Z,26.13
2022-11-20T08:16:41.814Z,25.60
2022-11-20T08:19:11.080Z,25.37
2022-11-20T08:21:39.031Z,26.37
2022-11-20T08:24:08.014Z,24.17
2022-11-20T08:26:36.234Z,27.57
2022-11-20T08:29:04.664Z,26.77
2022-11-20T08:31:33.017Z,25.17
2022-11-20T08:34:02.946Z,25.20
2022-11-20T08:36:36.526Z,23.80
2022-11-20T08:39:05.170Z,22.57
2022-11-20T08:41:34.280Z,23.57
2022-11-20T08:44:03.541Z,25.87
2022-11-20T08:46:35.195Z,24.80
2022-11-20T08:49:03.444Z,25.60
2022-11-20T08:51:31.695Z,23.77
2022-11-20T08:54:01.036Z,24.90
2022-11-20T08:56:29.801Z,26.33
2022-11-20T09:01:45.572Z,24.20
2022-11-20T09:04:15.388Z,24.27
2022-11-20T09:06:43.459Z,25.80
2022-11-20T09:09:12.697Z,22.77
2022-11-20T09:11:40.570Z,22.77
2022-11-20T09:14:08.623Z,23.10
2022-11-20T09:16:36.948Z,22.50
2022-11-20T09:19:40.506Z,22.93
2022-11-20T09:21:58.265Z,22.63
2022-11-20T09:24:29.138Z,23.97
2022-11-20T09:26:57.393Z,23.10
2022-11-20T09:29:25.307Z,20.10
2022-11-20T09:31:53.191Z,23.03
2022-11-20T09:34:21.058Z,19.53
2022-11-20T09:36:48.952Z,21.37
2022-11-20T09:39:16.896Z,22.97
2022-11-20T09:42:16.762Z,20.77
2022-11-20T09:45:12.808Z,21.10
2022-11-20T09:47:51.335Z,23.30
2022-11-20T09:50:27.518Z,24.30
2022-11-20T09:53:06.278Z,21.00
2022-11-20T09:55:34.391Z,20.27
2022-11-20T09:58:04.296Z,21.33
2022-11-20T10:00:32.191Z,22.30
2022-11-20T10:03:03.387Z,22.60
2022-11-20T10:05:34.353Z,22.33
2022-11-20T10:08:11.005Z,22.27
2022-11-20T10:10:44.227Z,22.27
2022-11-20T10:13:29.900Z,20.30
2022-11-20T10:16:05.874Z,20.27
2022-11-20T10:18:46.429Z,19.27
2022-11-20T10:21:21.053Z,20.87
2022-11-20T10:24:18.663Z,23.73
2022-11-20T10:26:54.120Z,20.33
2022-11-20T10:29:28.238Z,20.47
2022-11-20T10:31:59.061Z,7.80
2022-11-20T10:34:30.083Z,6.80
2022-11-20T10:37:04.640Z,6.50
2022-11-20T10:39:37.398Z,6.37
2022-11-20T10:42:10.898Z,6.87
2022-11-20T10:45:07.189Z,7.33
2022-11-20T10:47:35.303Z,5.70
2022-11-20T10:50:05.761Z,6.37
2022-11-20T10:52:38.775Z,5.80
2022-11-20T10:55:14.043Z,6.17
2022-11-20T10:57:53.667Z,6.73
2022-11-20T11:00:23.297Z,6.40
2022-11-20T11:02:52.547Z,5.30
2022-11-20T11:05:28.208Z,5.40
2022-11-20T11:07:57.439Z,5.70
2022-11-20T11:10:27.066Z,4.93
2022-11-20T11:12:56.135Z,5.33
2022-11-20T11:15:30.880Z,5.67
2022-11-20T11:17:59.161Z,8.10
2022-11-20T11:20:27.928Z,8.40
2022-11-20T11:22:57.580Z,14.20
2022-11-20T11:25:30.886Z,6.63
2022-11-20T11:28:01.528Z,6.10
2022-11-20T11:30:32.995Z,7.10
2022-11-20T11:33:08.880Z,5.70
2022-11-20T11:35:49.933Z,5.53
2022-11-20T11:38:23.690Z,4.67
2022-11-20T11:40:51.720Z,5.57
2022-11-20T11:43:39.368Z,8.80
2022-11-20T11:46:25.702Z,4.23
2022-11-20T11:48:59.167Z,5.87
2022-11-20T11:51:30.209Z,5.93
2022-11-20T11:53:59.046Z,7.40
2022-11-20T11:56:27.138Z,4.80
2022-11-20T11:58:56.436Z,5.97
2022-11-20T12:01:31.706Z,6.10
2022-11-20T12:04:06.624Z,7.60
2022-11-20T12:06:36.711Z,5.00
2022-11-20T12:09:06.882Z,6.03
2022-11-20T12:11:41.137Z,5.50
2022-11-20T12:14:15.668Z,6.90
2022-11-20T12:16:44.970Z,6.50
2022-11-20T12:19:14.703Z,7.37
2022-11-20T12:21:51.088Z,5.70
2022-11-20T12:24:54.723Z,6.90
2022-11-20T12:27:45.465Z,7.70
2022-11-20T12:30:15.321Z,7.43
2022-11-20T12:33:06.829Z,7.67
2022-11-20T12:35:44.827Z,8.37
2022-11-20T12:38:48.363Z,7.70
2022-11-20T12:41:35.803Z,9.43
2022-11-20T12:44:30.632Z,7.30
2022-11-20T12:47:14.381Z,8.23
2022-11-20T12:49:47.748Z,7.47
2022-11-20T12:52:26.437Z,8.40
2022-11-20T12:55:22.695Z,6.50
2022-11-20T12:57:56.308Z,7.73
2022-11-20T13:00:25.328Z,7.10
2022-11-20T13:03:09.915Z,6.90
2022-11-20T13:05:48.228Z,6.50
2022-11-20T13:08:22.102Z,7.30
2022-11-20T13:10:54.595Z,7.23
2022-11-20T13:13:26.344Z,7.77
2022-11-20T13:15:57.879Z,8.20
2022-11-20T13:18:25.818Z,6.53
2022-11-20T13:20:55.059Z,7.27
2022-11-20T13:23:27.817Z,7.83
2022-11-20T13:26:16.355Z,7.10
2022-11-20T13:28:44.297Z,8.87
2022-11-20T13:31:28.178Z,7.30
2022-11-20T13:33:57.749Z,11.13
2022-11-20T13:36:29.085Z,7.63
2022-11-20T13:38:58.033Z,6.80
2022-11-20T13:41:32.139Z,8.03
2022-11-20T13:44:06.433Z,6.60
2022-11-20T13:46:42.038Z,6.97
2022-11-20T13:49:12.609Z,8.60
2022-11-20T13:51:46.378Z,7.50
2022-11-20T13:54:54.255Z,8.07
2022-11-20T13:57:46.675Z,7.30
2022-11-20T14:00:17.144Z,8.00
2022-11-20T14:02:45.950Z,8.70
2022-11-20T14:05:21.679Z,7.10
2022-11-20T14:07:52.703Z,6.60
2022-11-20T14:10:30.069Z,7.33
2022-11-20T14:13:00.029Z,7.77
2022-11-20T14:15:30.715Z,9.77
2022-11-20T14:17:58.946Z,6.90
2022-11-20T14:20:29.075Z,8.93
2022-11-20T14:22:58.304Z,15.57
2022-11-20T14:25:28.883Z,12.10
2022-11-20T14:27:58.283Z,10.33
2022-11-20T14:30:27.243Z,8.40
2022-11-20T14:32:57.156Z,8.87
2022-11-20T14:35:28.863Z,7.93
2022-11-20T14:37:58.630Z,7.80
2022-11-20T14:40:29.934Z,6.03
2022-11-20T14:42:58.263Z,10.67
2022-11-20T14:45:26.713Z,9.27
2022-11-20T14:47:56.195Z,10.00
2022-11-20T14:50:26.451Z,7.60
2022-11-20T14:52:56.177Z,11.60
2022-11-20T14:55:33.807Z,10.27
2022-11-20T14:58:03.807Z,8.70
2022-11-20T15:00:33.041Z,11.23
2022-11-20T15:03:01.067Z,11.70
2022-11-20T15:05:47.203Z,12.30
2022-11-20T15:08:15.972Z,20.27
2022-11-20T15:10:50.245Z,15.13
2022-11-20T15:13:22.613Z,11.97
2022-11-20T15:15:51.951Z,11.57
2022-11-20T15:18:21.232Z,16.37
2022-11-20T15:20:49.828Z,17.37
2022-11-20T15:23:19.945Z,19.97
2022-11-20T15:25:50.183Z,15.83
2022-11-20T15:28:23.942Z,15.60
2022-11-20T15:30:52.245Z,7.70
2022-11-20T15:33:20.403Z,6.30
2022-11-20T15:35:48.283Z,5.20
2022-11-20T15:38:16.337Z,6.87
2022-11-20T15:40:47.249Z,6.70
2022-11-20T15:43:16.740Z,7.50
2022-11-20T15:45:46.933Z,7.83
2022-11-20T15:48:17.648Z,13.30
2022-11-20T15:50:52.557Z,18.60
2022-11-20T15:53:20.458Z,21.30
2022-11-20T15:55:48.463Z,13.67
2022-11-20T15:58:18.713Z,14.27
2022-11-20T16:00:46.882Z,14.50
2022-11-20T16:03:15.271Z,16.63
2022-11-20T16:05:43.236Z,15.20
2022-11-20T16:08:11.959Z,20.20
2022-11-20T16:10:40.744Z,22.73
2022-11-20T16:13:31.763Z,15.50
2022-11-20T16:16:02.829Z,15.93
2022-11-20T16:18:30.760Z,16.70
2022-11-20T16:20:59.039Z,27.53
2022-11-20T16:23:27.014Z,17.10
2022-11-20T16:25:54.948Z,20.10
2022-11-20T16:28:22.840Z,18.10
2022-11-20T16:30:50.731Z,21.67
2022-11-20T16:33:20.008Z,20.30
2022-11-20T16:35:47.983Z,17.00
2022-11-20T16:38:15.854Z,20.17
2022-11-20T16:40:43.817Z,16.43
2022-11-20T16:43:13.100Z,18.53
2022-11-20T16:45:44.724Z,25.10
2022-11-20T16:48:17.129Z,23.97
2022-11-20T16:50:51.589Z,23.67
2022-11-20T16:53:19.928Z,24.07
2022-11-20T16:55:48.139Z,22.47
2022-11-20T16:58:16.454Z,20.07
2022-11-20T17:00:50.071Z,20.43
2022-11-20T17:03:19.510Z,20.70
2022-11-20T17:05:47.389Z,19.83
2022-11-20T17:08:16.684Z,16.73
2022-11-20T17:10:44.597Z,22.80
2022-11-20T17:13:12.496Z,23.93
2022-11-20T17:15:40.401Z,25.30
2022-11-20T17:18:08.234Z,21.70
2022-11-20T17:20:36.081Z,23.90
2022-11-20T17:23:03.959Z,24.50
2022-11-20T17:25:35.265Z,18.13
2022-11-20T17:28:03.140Z,42.27
2022-11-20T17:30:31.500Z,21.40
2022-11-20T17:32:59.325Z,11.87
2022-11-20T17:35:27.141Z,13.40
2022-11-20T17:37:55.013Z,13.73
2022-11-20T17:40:27.191Z,13.10
2022-11-20T17:42:56.861Z,12.80
2022-11-20T17:45:24.831Z,13.33
2022-11-20T17:47:52.666Z,19.57
2022-11-20T17:50:20.529Z,19.10
2022-11-20T17:52:48.425Z,18.73
2022-11-20T17:55:16.556Z,21.40
2022-11-20T17:57:56.750Z,31.30
2022-11-20T18:00:26.984Z,36.87
2022-11-20T18:02:55.240Z,32.07
2022-11-20T18:05:23.072Z,28.43
2022-11-20T18:07:53.807Z,25.17
2022-11-20T18:10:21.747Z,25.00
2022-11-20T18:12:49.605Z,25.17
2022-11-20T18:15:17.680Z,25.13
2022-11-20T18:17:46.862Z,23.97
2022-11-20T18:20:28.633Z,20.30
2022-11-20T18:22:58.499Z,20.23
2022-11-20T18:25:26.373Z,20.77
2022-11-20T18:27:54.206Z,22.73
2022-11-20T18:30:22.171Z,17.80
2022-11-20T18:32:51.383Z,17.40
2022-11-20T18:35:19.251Z,14.33
2022-11-20T18:37:47.060Z,12.70
2022-11-20T18:40:15.209Z,10.80
2022-11-20T18:43:00.371Z,11.47
2022-11-20T18:45:29.057Z,11.60
2022-11-20T18:47:58.271Z,10.40
2022-11-20T18:50:26.066Z,9.17
2022-11-20T18:52:53.988Z,8.83
2022-11-20T18:55:25.037Z,7.10
2022-11-20T18:57:54.007Z,8.10
2022-11-20T19:00:22.281Z,8.07
2022-11-20T19:02:50.113Z,7.20
2022-11-20T19:05:19.329Z,6.80
2022-11-20T19:07:47.200Z,8.03
2022-11-20T19:10:15.461Z,8.77
2022-11-20T19:12:43.285Z,8.00
2022-11-20T19:15:11.770Z,8.67
2022-11-20T19:17:39.739Z,7.80
2022-11-20T19:20:08.330Z,7.73
2022-11-20T19:22:37.549Z,8.83
2022-11-20T19:25:06.226Z,7.50
2022-11-20T19:27:34.081Z,6.93
2022-11-20T19:30:03.395Z,7.90
2022-11-20T19:32:32.482Z,7.03
2022-11-20T19:35:00.364Z,6.83
2022-11-20T19:37:28.224Z,5.67
2022-11-20T19:39:59.647Z,6.60
2022-11-20T19:42:27.518Z,7.17
2022-11-20T19:44:55.355Z,8.50
2022-11-20T19:47:35.378Z,11.40
2022-11-20T19:50:11.518Z,23.83
2022-11-20T19:52:39.425Z,18.17
2022-11-20T19:55:10.009Z,14.97
2022-11-20T19:57:37.920Z,11.40
2022-11-20T20:00:06.726Z,11.47
2022-11-20T20:02:34.588Z,12.50
2022-11-20T20:05:02.548Z,11.50
2022-11-20T20:07:30.405Z,9.70
2022-11-20T20:09:58.305Z,11.20
2022-11-20T20:12:27.509Z,11.60
2022-11-20T20:14:55.317Z,11.10
2022-11-20T20:17:23.127Z,9.43
2022-11-20T20:19:50.940Z,8.00
2022-11-20T20:22:18.820Z,8.17
2022-11-20T20:24:46.678Z,6.70
2022-11-20T20:27:14.517Z,7.33
2022-11-20T20:29:43.688Z,7.40
2022-11-20T20:32:11.521Z,6.43
2022-11-20T20:34:39.344Z,10.10
2022-11-20T20:37:07.144Z,9.00
2022-11-20T20:39:35.014Z,8.67
2022-11-20T20:42:02.847Z,8.60
2022-11-20T20:44:47.992Z,7.10
2022-11-20T20:47:17.200Z,6.30
2022-11-20T20:49:45.000Z,8.43
2022-11-20T20:52:12.817Z,10.43
2022-11-20T20:54:42.234Z,12.20
2022-11-20T20:57:10.053Z,11.60
2022-11-20T20:59:37.931Z,10.40
2022-11-20T21:02:05.831Z,9.70
2022-11-20T21:04:35.074Z,9.13
2022-11-20T21:07:03.186Z,9.40
2022-11-20T21:09:31.053Z,9.67
2022-11-20T21:11:58.928Z,9.63
2022-11-20T21:14:26.762Z,10.30
2022-11-20T21:16:54.646Z,9.80
2022-11-20T21:19:22.449Z,9.97
2022-11-20T21:21:59.553Z,10.20
2022-11-20T21:24:28.167Z,8.20
2022-11-20T21:26:56.168Z,7.97
2022-11-20T21:29:24.990Z,9.10
2022-11-20T21:31:54.056Z,8.60
2022-11-20T21:34:22.788Z,6.80
2022-11-20T21:36:52.639Z,8.37
2022-11-20T21:39:21.762Z,9.20
2022-11-20T21:41:49.643Z,10.83
2022-11-20T21:44:30.984Z,9.93
2022-11-20T21:46:59.612Z,11.77
2022-11-20T21:49:27.435Z,10.10
2022-11-20T21:51:57.038Z,11.50
2022-11-20T21:54:25.142Z,10.43
2022-11-20T21:56:53.201Z,11.20
2022-11-20T21:59:22.105Z,10.90
2022-11-20T22:01:50.006Z,13.83
2022-11-20T22:04:17.876Z,13.13
2022-11-20T22:06:45.700Z,11.60
2022-11-20T22:09:14.879Z,12.10
2022-11-20T22:11:42.799Z,10.80
2022-11-20T22:14:24.187Z,12.37
2022-11-20T22:16:53.466Z,10.77
2022-11-20T22:19:22.171Z,9.47
2022-11-20T22:21:50.683Z,8.47
2022-11-20T22:24:21.487Z,8.17
2022-11-20T22:26:49.596Z,7.17
2022-11-20T22:29:19.212Z,8.50
2022-11-20T22:31:47.801Z,7.30
2022-11-20T22:34:15.997Z,7.77
2022-11-20T22:36:44.680Z,8.53
2022-11-20T22:39:12.600Z,8.67
2022-11-20T22:41:41.857Z,8.00
2022-11-20T22:44:09.826Z,7.70
2022-11-20T22:46:38.353Z,7.80
2022-11-20T22:49:08.575Z,6.70
2022-11-20T22:51:38.204Z,7.53
2022-11-20T22:54:06.184Z,7.27
2022-11-20T22:56:34.638Z,6.07
2022-11-20T22:59:04.604Z,6.90
2022-11-20T23:01:33.916Z,7.43
2022-11-20T23:04:03.128Z,5.97
2022-11-20T23:06:34.221Z,5.90
2022-11-20T23:09:02.616Z,6.33
2022-11-20T23:11:31.771Z,6.47
2022-11-20T23:14:00.495Z,6.50
2022-11-20T23:16:30.479Z,5.97
2022-11-20T23:18:59.852Z,6.13
2022-11-20T23:21:28.199Z,6.47
2022-11-20T23:23:57.695Z,7.27
2022-11-20T23:26:27.166Z,9.83
2022-11-20T23:28:56.364Z,13.87
2022-11-20T23:31:24.975Z,11.63
2022-11-20T23:33:54.517Z,13.07
2022-11-20T23:36:22.516Z,16.27
2022-11-20T23:38:50.421Z,17.17
2022-11-20T23:41:18.531Z,17.83
2022-11-20T23:43:46.508Z,17.53
2022-11-20T23:46:16.772Z,16.13
2022-11-20T23:48:45.945Z,16.77
2022-11-20T23:51:15.650Z,17.37
2022-11-20T23:53:43.639Z,15.33
2022-11-20T23:56:12.100Z,14.70
2022-11-20T23:58:40.158Z,10.00
